sensor_id;sensor_type;location;lat;lon;timestamp;pressure;altitude;pressure_sealevel;temperature;humidity
7433;BME280;32233;49.500;7.764;2023-04-25T00:00:48;97864.50;;;6.35;100.00
7433;BME280;32233;49.500;7.764;2023-04-25T00:03:15;97865.63;;;6.26;100.00
7433;BME280;32233;49.500;7.764;2023-04-25T00:05:42;97865.00;;;6.45;100.00
7433;BME280;32233;49.500;7.764;2023-04-25T00:08:09;97864.13;;;6.38;100.00
7433;BME280;32233;49.500;7.764;2023-04-25T00:10:36;97865.88;;;6.31;100.00
7433;BME280;32233;49.500;7.764;2023-04-25T00:13:03;97854.13;;;6.27;100.00
7433;BME280;32233;49.500;7.764;2023-04-25T00:15:29;97859.69;;;6.38;100.00
7433;BME280;32233;49.500;7.764;2023-04-25T00:17:58;97859.75;;;6.45;100.00
7433;BME280;32233;49.500;7.764;2023-04-25T00:20:25;97857.66;;;6.40;100.00
7433;BME280;32233;49.500;7.764;2023-04-25T00:22:52;97857.28;;;6.43;100.00
7433;BME280;32233;49.500;7.764;2023-04-25T00:25:19;97860.03;;;6.35;100.00
7433;BME280;32233;49.500;7.764;2023-04-25T00:27:46;97865.78;;;6.24;100.00
7433;BME280;32233;49.500;7.764;2023-04-25T00:30:13;97862.91;;;6.19;100.00
7433;BME280;32233;49.500;7.764;2023-04-25T00:32:40;97860.94;;;6.21;100.00
7433;BME280;32233;49.500;7.764;2023-04-25T00:35:07;97856.88;;;6.18;100.00
7433;BME280;32233;49.500;7.764;2023-04-25T00:37:34;97849.91;;;6.32;100.00
7433;BME280;32233;49.500;7.764;2023-04-25T00:40:00;97857.56;;;6.27;100.00
7433;BME280;32233;49.500;7.764;2023-04-25T00:42:28;97851.16;;;6.36;100.00
7433;BME280;32233;49.500;7.764;2023-04-25T00:44:55;97851.94;;;6.30;100.00
7433;BME280;32233;49.500;7.764;2023-04-25T00:47:22;97845.81;;;6.23;100.00
7433;BME280;32233;49.500;7.764;2023-04-25T00:49:50;97844.25;;;6.07;100.00
7433;BME280;32233;49.500;7.764;2023-04-25T00:52:16;97848.00;;;6.19;100.00
7433;BME280;32233;49.500;7.764;2023-04-25T00:54:43;97844.56;;;6.19;100.00
7433;BME280;32233;49.500;7.764;2023-04-25T00:57:10;97845.88;;;6.08;100.00
7433;BME280;32233;49.500;7.764;2023-04-25T00:59:37;97835.88;;;6.18;100.00
7433;BME280;32233;49.500;7.764;2023-04-25T01:02:04;97836.00;;;6.10;100.00
7433;BME280;32233;49.500;7.764;2023-04-25T01:04:31;97840.25;;;6.11;100.00
7433;BME280;32233;49.500;7.764;2023-04-25T01:06:57;97839.31;;;6.19;100.00
7433;BME280;32233;49.500;7.764;2023-04-25T01:09:24;97842.50;;;6.14;100.00
7433;BME280;32233;49.500;7.764;2023-04-25T01:11:51;97842.50;;;6.14;100.00
7433;BME280;32233;49.500;7.764;2023-04-25T01:14:17;97838.50;;;6.18;100.00
7433;BME280;32233;49.500;7.764;2023-04-25T01:16:44;97842.94;;;6.18;100.00
7433;BME280;32233;49.500;7.764;2023-04-25T01:19:11;97841.31;;;6.17;100.00
7433;BME280;32233;49.500;7.764;2023-04-25T01:21:39;97843.50;;;6.13;100.00
7433;BME280;32233;49.500;7.764;2023-04-25T01:24:06;97837.63;;;6.11;100.00
7433;BME280;32233;49.500;7.764;2023-04-25T01:26:33;97833.94;;;6.06;100.00
7433;BME280;32233;49.500;7.764;2023-04-25T01:29:00;97843.50;;;6.13;100.00
7433;BME280;32233;49.500;7.764;2023-04-25T01:31:27;97838.41;;;6.12;100.00
7433;BME280;32233;49.500;7.764;2023-04-25T01:33:54;97834.56;;;6.08;100.00
7433;BME280;32233;49.500;7.764;2023-04-25T01:36:21;97840.81;;;6.07;100.00
7433;BME280;32233;49.500;7.764;2023-04-25T01:38:48;97840.56;;;6.02;100.00
7433;BME280;32233;49.500;7.764;2023-04-25T01:41:15;97843.25;;;6.08;100.00
7433;BME280;32233;49.500;7.764;2023-04-25T01:43:43;97843.88;;;6.10;100.00
7433;BME280;32233;49.500;7.764;2023-04-25T01:46:11;97845.88;;;6.08;100.00
7433;BME280;32233;49.500;7.764;2023-04-25T01:48:38;97839.66;;;6.16;100.00
7433;BME280;32233;49.500;7.764;2023-04-25T01:51:06;97843.66;;;6.12;100.00
7433;BME280;32233;49.500;7.764;2023-04-25T01:53:33;97852.63;;;6.17;100.00
7433;BME280;32233;49.500;7.764;2023-04-25T01:56:01;97847.13;;;6.12;100.00
7433;BME280;32233;49.500;7.764;2023-04-25T01:58:32;97851.13;;;6.08;100.00
7433;BME280;32233;49.500;7.764;2023-04-25T02:01:01;97846.81;;;5.86;100.00
7433;BME280;32233;49.500;7.764;2023-04-25T02:03:36;97845.00;;;6.01;100.00
7433;BME280;32233;49.500;7.764;2023-04-25T02:06:07;97842.50;;;6.14;100.00
7433;BME280;32233;49.500;7.764;2023-04-25T02:08:37;97838.41;;;6.12;100.00
7433;BME280;32233;49.500;7.764;2023-04-25T02:11:04;97832.81;;;6.15;100.00
7433;BME280;32233;49.500;7.764;2023-04-25T02:13:37;97825.00;;;6.22;100.00
7433;BME280;32233;49.500;7.764;2023-04-25T02:16:33;97831.50;;;6.04;100.00
7433;BME280;32233;49.500;7.764;2023-04-25T02:19:02;97829.56;;;6.13;100.00
7433;BME280;32233;49.500;7.764;2023-04-25T02:21:29;97828.91;;;6.04;100.00
7433;BME280;32233;49.500;7.764;2023-04-25T02:23:57;97832.00;;;5.93;100.00
7433;BME280;32233;49.500;7.764;2023-04-25T02:26:24;97827.28;;;5.88;100.00
7433;BME280;32233;49.500;7.764;2023-04-25T02:28:50;97821.84;;;5.90;100.00
7433;BME280;32233;49.500;7.764;2023-04-25T02:31:18;97827.41;;;5.80;100.00
7433;BME280;32233;49.500;7.764;2023-04-25T02:33:45;97832.81;;;5.79;100.00
7433;BME280;32233;49.500;7.764;2023-04-25T02:36:12;97832.25;;;5.83;100.00
7433;BME280;32233;49.500;7.764;2023-04-25T02:38:40;97828.38;;;5.79;100.00
7433;BME280;32233;49.500;7.764;2023-04-25T02:41:07;97835.63;;;5.77;100.00
7433;BME280;32233;49.500;7.764;2023-04-25T02:43:33;97834.03;;;5.76;100.00
7433;BME280;32233;49.500;7.764;2023-04-25T02:46:00;97826.97;;;5.77;100.00
7433;BME280;32233;49.500;7.764;2023-04-25T02:48:26;97821.94;;;5.60;100.00
7433;BME280;32233;49.500;7.764;2023-04-25T02:50:54;97827.09;;;5.54;100.00
7433;BME280;32233;49.500;7.764;2023-04-25T02:53:20;97819.56;;;5.65;100.00
7433;BME280;32233;49.500;7.764;2023-04-25T02:55:50;97819.13;;;5.62;100.00
7433;BME280;32233;49.500;7.764;2023-04-25T02:58:18;97825.88;;;5.71;100.00
7433;BME280;32233;49.500;7.764;2023-04-25T03:00:48;97823.31;;;5.56;100.00
7433;BME280;32233;49.500;7.764;2023-04-25T03:03:15;97826.19;;;5.61;100.00
7433;BME280;32233;49.500;7.764;2023-04-25T03:05:44;97831.44;;;5.46;100.00
7433;BME280;32233;49.500;7.764;2023-04-25T03:08:13;97829.97;;;5.59;100.00
7433;BME280;32233;49.500;7.764;2023-04-25T03:10:40;97829.00;;;5.60;100.00
7433;BME280;32233;49.500;7.764;2023-04-25T03:13:08;97818.50;;;5.60;100.00
7433;BME280;32233;49.500;7.764;2023-04-25T03:15:35;97825.56;;;5.59;100.00
7433;BME280;32233;49.500;7.764;2023-04-25T03:18:02;97826.63;;;5.65;100.00
7433;BME280;32233;49.500;7.764;2023-04-25T03:20:29;97822.88;;;5.53;100.00
7433;BME280;32233;49.500;7.764;2023-04-25T03:22:56;97824.00;;;5.65;100.00
7433;BME280;32233;49.500;7.764;2023-04-25T03:25:23;97826.03;;;5.48;100.00
7433;BME280;32233;49.500;7.764;2023-04-25T03:27:49;97828.72;;;5.55;100.00
7433;BME280;32233;49.500;7.764;2023-04-25T03:30:16;97832.75;;;5.72;100.00
7433;BME280;32233;49.500;7.764;2023-04-25T03:32:43;97836.25;;;5.79;100.00
7433;BME280;32233;49.500;7.764;2023-04-25T03:35:14;97836.66;;;5.76;100.00
7433;BME280;32233;49.500;7.764;2023-04-25T03:37:41;97839.06;;;5.78;100.00
7433;BME280;32233;49.500;7.764;2023-04-25T03:40:16;97832.69;;;5.87;100.00
7433;BME280;32233;49.500;7.764;2023-04-25T03:43:07;97833.81;;;5.78;100.00
7433;BME280;32233;49.500;7.764;2023-04-25T03:45:35;97833.75;;;5.71;100.00
7433;BME280;32233;49.500;7.764;2023-04-25T03:48:01;97830.50;;;5.69;100.00
7433;BME280;32233;49.500;7.764;2023-04-25T03:50:29;97832.75;;;5.72;100.00
7433;BME280;32233;49.500;7.764;2023-04-25T03:52:56;97833.75;;;5.71;100.00
7433;BME280;32233;49.500;7.764;2023-04-25T03:55:26;97827.78;;;5.77;100.00
7433;BME280;32233;49.500;7.764;2023-04-25T03:57:53;97824.38;;;5.62;100.00
7433;BME280;32233;49.500;7.764;2023-04-25T04:00:20;97829.25;;;5.65;100.00
7433;BME280;32233;49.500;7.764;2023-04-25T04:02:50;97828.09;;;5.67;100.00
7433;BME280;32233;49.500;7.764;2023-04-25T04:05:17;97832.28;;;5.47;100.00
7433;BME280;32233;49.500;7.764;2023-04-25T04:07:50;97823.75;;;5.60;100.00
7433;BME280;32233;49.500;7.764;2023-04-25T04:10:17;97826.84;;;5.49;100.00
7433;BME280;32233;49.500;7.764;2023-04-25T04:12:43;97825.94;;;5.56;100.00
7433;BME280;32233;49.500;7.764;2023-04-25T04:15:10;97821.84;;;5.54;100.00
7433;BME280;32233;49.500;7.764;2023-04-25T04:17:38;97831.06;;;5.64;100.00
7433;BME280;32233;49.500;7.764;2023-04-25T04:20:07;97827.53;;;5.57;100.00
7433;BME280;32233;49.500;7.764;2023-04-25T04:22:34;97831.94;;;5.35;100.00
7433;BME280;32233;49.500;7.764;2023-04-25T04:25:07;97824.63;;;5.31;100.00
7433;BME280;32233;49.500;7.764;2023-04-25T04:27:52;97823.88;;;5.37;100.00
7433;BME280;32233;49.500;7.764;2023-04-25T04:30:41;97826.09;;;5.55;100.00
7433;BME280;32233;49.500;7.764;2023-04-25T04:33:08;97822.22;;;5.51;100.00
7433;BME280;32233;49.500;7.764;2023-04-25T04:35:36;97826.31;;;5.38;100.00
7433;BME280;32233;49.500;7.764;2023-04-25T04:38:03;97826.06;;;5.33;100.00
7433;BME280;32233;49.500;7.764;2023-04-25T04:40:33;97830.38;;;5.56;100.00
7433;BME280;32233;49.500;7.764;2023-04-25T04:43:12;97838.13;;;5.64;100.00
7433;BME280;32233;49.500;7.764;2023-04-25T04:45:50;97846.94;;;5.92;100.00
7433;BME280;32233;49.500;7.764;2023-04-25T04:48:19;97852.50;;;5.89;100.00
7433;BME280;32233;49.500;7.764;2023-04-25T04:51:15;97847.13;;;5.76;100.00
7433;BME280;32233;49.500;7.764;2023-04-25T04:53:53;97846.94;;;5.78;100.00
7433;BME280;32233;49.500;7.764;2023-04-25T04:56:37;97853.69;;;5.87;100.00
7433;BME280;32233;49.500;7.764;2023-04-25T04:59:27;97847.94;;;5.77;100.00
7433;BME280;32233;49.500;7.764;2023-04-25T05:02:04;97847.94;;;5.77;100.00
7433;BME280;32233;49.500;7.764;2023-04-25T05:04:49;97859.81;;;5.72;100.00
7433;BME280;32233;49.500;7.764;2023-04-25T05:07:34;97864.22;;;5.72;100.00
7433;BME280;32233;49.500;7.764;2023-04-25T05:10:20;97862.59;;;5.71;100.00
7433;BME280;32233;49.500;7.764;2023-04-25T05:12:55;97868.56;;;5.80;100.00
7433;BME280;32233;49.500;7.764;2023-04-25T05:15:40;97869.81;;;5.84;100.00
7433;BME280;32233;49.500;7.764;2023-04-25T05:18:21;97869.63;;;5.85;100.00
7433;BME280;32233;49.500;7.764;2023-04-25T05:21:02;97871.19;;;5.80;100.00
7433;BME280;32233;49.500;7.764;2023-04-25T05:23:58;97867.53;;;5.95;100.00
7433;BME280;32233;49.500;7.764;2023-04-25T05:26:44;97878.66;;;5.98;100.00
7433;BME280;32233;49.500;7.764;2023-04-25T05:29:25;97875.31;;;5.89;100.00
7433;BME280;32233;49.500;7.764;2023-04-25T05:32:16;97872.41;;;5.99;100.00
7433;BME280;32233;49.500;7.764;2023-04-25T05:34:46;97887.09;;;5.93;100.00
7433;BME280;32233;49.500;7.764;2023-04-25T05:37:24;97878.41;;;5.92;100.00
7433;BME280;32233;49.500;7.764;2023-04-25T05:39:55;97877.50;;;5.85;100.00
7433;BME280;32233;49.500;7.764;2023-04-25T05:42:45;97879.56;;;5.90;100.00
7433;BME280;32233;49.500;7.764;2023-04-25T05:45:18;97879.72;;;6.03;100.00
7433;BME280;32233;49.500;7.764;2023-04-25T05:47:55;97887.75;;;6.16;100.00
7433;BME280;32233;49.500;7.764;2023-04-25T05:50:32;97891.22;;;6.02;100.00
7433;BME280;32233;49.500;7.764;2023-04-25T05:53:02;97888.69;;;6.09;100.00
7433;BME280;32233;49.500;7.764;2023-04-25T05:55:31;97891.63;;;6.20;100.00
7433;BME280;32233;49.500;7.764;2023-04-25T05:58:00;97897.84;;;6.19;100.00
7433;BME280;32233;49.500;7.764;2023-04-25T06:00:27;97890.25;;;6.25;100.00
7433;BME280;32233;49.500;7.764;2023-04-25T06:02:54;97896.19;;;6.33;100.00
7433;BME280;32233;49.500;7.764;2023-04-25T06:05:20;97905.81;;;6.26;100.00
7433;BME280;32233;49.500;7.764;2023-04-25T06:07:47;97897.56;;;6.29;100.00
7433;BME280;32233;49.500;7.764;2023-04-25T06:10:14;97902.41;;;6.32;100.00
7433;BME280;32233;49.500;7.764;2023-04-25T06:12:41;97903.06;;;6.34;100.00
7433;BME280;32233;49.500;7.764;2023-04-25T06:15:08;97901.00;;;6.30;100.00
7433;BME280;32233;49.500;7.764;2023-04-25T06:17:53;97901.91;;;6.43;100.00
7433;BME280;32233;49.500;7.764;2023-04-25T06:20:19;97899.28;;;6.43;100.00
7433;BME280;32233;49.500;7.764;2023-04-25T06:22:50;97902.16;;;6.27;100.00
7433;BME280;32233;49.500;7.764;2023-04-25T06:25:19;97907.75;;;6.39;100.00
7433;BME280;32233;49.500;7.764;2023-04-25T06:27:46;97905.69;;;6.34;100.00
7433;BME280;32233;49.500;7.764;2023-04-25T06:30:13;97911.75;;;6.35;100.00
7433;BME280;32233;49.500;7.764;2023-04-25T06:32:39;97912.91;;;6.32;100.00
7433;BME280;32233;49.500;7.764;2023-04-25T06:35:06;97914.56;;;6.33;100.00
7433;BME280;32233;49.500;7.764;2023-04-25T06:37:34;97913.31;;;6.29;100.00
7433;BME280;32233;49.500;7.764;2023-04-25T06:40:01;97918.38;;;6.31;100.00
7433;BME280;32233;49.500;7.764;2023-04-25T06:42:28;97918.38;;;6.31;100.00
7433;BME280;32233;49.500;7.764;2023-04-25T06:44:57;97919.16;;;6.31;100.00
7433;BME280;32233;49.500;7.764;2023-04-25T06:47:24;97920.38;;;6.29;100.00
7433;BME280;32233;49.500;7.764;2023-04-25T06:49:51;97916.63;;;6.38;100.00
7433;BME280;32233;49.500;7.764;2023-04-25T06:52:18;97918.19;;;6.54;100.00
7433;BME280;32233;49.500;7.764;2023-04-25T06:54:46;97918.06;;;6.62;100.00
7433;BME280;32233;49.500;7.764;2023-04-25T06:57:24;97919.88;;;6.61;100.00
7433;BME280;32233;49.500;7.764;2023-04-25T06:59:50;97924.66;;;6.79;100.00
7433;BME280;32233;49.500;7.764;2023-04-25T07:02:17;97921.09;;;6.87;100.00
7433;BME280;32233;49.500;7.764;2023-04-25T07:04:44;97927.38;;;6.92;100.00
7433;BME280;32233;49.500;7.764;2023-04-25T07:07:12;97930.66;;;6.94;100.00
7433;BME280;32233;49.500;7.764;2023-04-25T07:09:45;97933.56;;;7.06;100.00
7433;BME280;32233;49.500;7.764;2023-04-25T07:12:12;97933.38;;;7.08;100.00
7433;BME280;32233;49.500;7.764;2023-04-25T07:14:38;97936.50;;;6.97;100.00
7433;BME280;32233;49.500;7.764;2023-04-25T07:17:06;97941.47;;;7.06;100.00
7433;BME280;32233;49.500;7.764;2023-04-25T07:19:34;97946.94;;;7.11;100.00
7433;BME280;32233;49.500;7.764;2023-04-25T07:22:01;97935.50;;;6.98;100.00
7433;BME280;32233;49.500;7.764;2023-04-25T07:24:30;97940.59;;;6.99;100.00
7433;BME280;32233;49.500;7.764;2023-04-25T07:26:58;97936.38;;;7.05;100.00
7433;BME280;32233;49.500;7.764;2023-04-25T07:29:30;97941.19;;;7.01;100.00
7433;BME280;32233;49.500;7.764;2023-04-25T07:31:59;97944.59;;;6.95;100.00
7433;BME280;32233;49.500;7.764;2023-04-25T07:34:25;97949.66;;;6.97;100.00
7433;BME280;32233;49.500;7.764;2023-04-25T07:36:52;97955.97;;;7.02;100.00
7433;BME280;32233;49.500;7.764;2023-04-25T07:39:21;97949.50;;;6.55;100.00
7433;BME280;32233;49.500;7.764;2023-04-25T07:41:49;97957.47;;;6.26;100.00
7433;BME280;32233;49.500;7.764;2023-04-25T07:44:23;97960.13;;;6.47;100.00
7433;BME280;32233;49.500;7.764;2023-04-25T07:46:50;97960.06;;;6.62;100.00
7433;BME280;32233;49.500;7.764;2023-04-25T07:49:17;97961.13;;;6.46;100.00
7433;BME280;32233;49.500;7.764;2023-04-25T07:51:44;97963.38;;;6.70;100.00
7433;BME280;32233;49.500;7.764;2023-04-25T07:54:14;97964.41;;;6.98;100.00
7433;BME280;32233;49.500;7.764;2023-04-25T07:56:46;97973.13;;;6.98;100.00
7433;BME280;32233;49.500;7.764;2023-04-25T07:59:21;97982.34;;;7.15;100.00
7433;BME280;32233;49.500;7.764;2023-04-25T08:01:48;97984.25;;;7.28;100.00
7433;BME280;32233;49.500;7.764;2023-04-25T08:04:16;97980.59;;;7.23;100.00
7433;BME280;32233;49.500;7.764;2023-04-25T08:06:52;97983.16;;;7.16;100.00
7433;BME280;32233;49.500;7.764;2023-04-25T08:09:24;97996.72;;;6.91;100.00
7433;BME280;32233;49.500;7.764;2023-04-25T08:11:52;97998.00;;;6.81;100.00
7433;BME280;32233;49.500;7.764;2023-04-25T08:14:24;98004.53;;;6.63;100.00
7433;BME280;32233;49.500;7.764;2023-04-25T08:16:51;98004.50;;;6.42;100.00
7433;BME280;32233;49.500;7.764;2023-04-25T08:19:19;98010.94;;;6.39;100.00
7433;BME280;32233;49.500;7.764;2023-04-25T08:21:46;98018.75;;;6.33;100.00
7433;BME280;32233;49.500;7.764;2023-04-25T08:24:18;98020.53;;;6.32;100.00
7433;BME280;32233;49.500;7.764;2023-04-25T08:26:44;98024.97;;;6.32;100.00
7433;BME280;32233;49.500;7.764;2023-04-25T08:29:15;98042.75;;;6.30;100.00
7433;BME280;32233;49.500;7.764;2023-04-25T08:31:42;98040.13;;;6.15;100.00
7433;BME280;32233;49.500;7.764;2023-04-25T08:34:08;98043.56;;;6.15;100.00
7433;BME280;32233;49.500;7.764;2023-04-25T08:36:44;98044.00;;;6.19;100.00
7433;BME280;32233;49.500;7.764;2023-04-25T08:39:40;98053.97;;;6.09;100.00
7433;BME280;32233;49.500;7.764;2023-04-25T08:42:15;98061.94;;;6.01;100.00
7433;BME280;32233;49.500;7.764;2023-04-25T08:44:41;98063.94;;;5.99;100.00
7433;BME280;32233;49.500;7.764;2023-04-25T08:47:08;98064.75;;;5.99;100.00
7433;BME280;32233;49.500;7.764;2023-04-25T08:49:45;98068.78;;;5.87;100.00
7433;BME280;32233;49.500;7.764;2023-04-25T08:52:13;98070.44;;;6.03;100.00
7433;BME280;32233;49.500;7.764;2023-04-25T08:54:48;98081.66;;;6.11;100.00
7433;BME280;32233;49.500;7.764;2023-04-25T08:57:17;98083.81;;;6.23;100.00
7433;BME280;32233;49.500;7.764;2023-04-25T08:59:46;98083.63;;;6.24;100.00
7433;BME280;32233;49.500;7.764;2023-04-25T09:02:13;98087.59;;;5.90;100.00
7433;BME280;32233;49.500;7.764;2023-04-25T09:04:45;98086.75;;;6.13;100.00
7433;BME280;32233;49.500;7.764;2023-04-25T09:07:12;98099.56;;;6.37;100.00
7433;BME280;32233;49.500;7.764;2023-04-25T09:09:39;98093.88;;;6.34;100.00
7433;BME280;32233;49.500;7.764;2023-04-25T09:12:06;98104.72;;;6.45;100.00
7433;BME280;32233;49.500;7.764;2023-04-25T09:14:32;98109.53;;;6.42;100.00
7433;BME280;32233;49.500;7.764;2023-04-25T09:17:06;98113.41;;;6.46;100.00
7433;BME280;32233;49.500;7.764;2023-04-25T09:19:42;98117.38;;;6.57;100.00
7433;BME280;32233;49.500;7.764;2023-04-25T09:22:17;98117.31;;;6.86;100.00
7433;BME280;32233;49.500;7.764;2023-04-25T09:24:44;98115.50;;;6.87;100.00
7433;BME280;32233;49.500;7.764;2023-04-25T09:27:18;98126.84;;;7.09;100.00
7433;BME280;32233;49.500;7.764;2023-04-25T09:29:47;98131.25;;;7.44;100.00
7433;BME280;32233;49.500;7.764;2023-04-25T09:32:20;98134.84;;;7.65;100.00
7433;BME280;32233;49.500;7.764;2023-04-25T09:34:51;98141.38;;;7.69;100.00
7433;BME280;32233;49.500;7.764;2023-04-25T09:37:21;98144.22;;;7.74;100.00
7433;BME280;32233;49.500;7.764;2023-04-25T09:40:07;98141.16;;;7.99;100.00
7433;BME280;32233;49.500;7.764;2023-04-25T09:42:47;98142.75;;;8.49;100.00
7433;BME280;32233;49.500;7.764;2023-04-25T09:45:14;98150.38;;;8.44;100.00
7433;BME280;32233;49.500;7.764;2023-04-25T09:47:43;98143.22;;;8.66;100.00
7433;BME280;32233;49.500;7.764;2023-04-25T09:50:16;98153.44;;;8.41;100.00
7433;BME280;32233;49.500;7.764;2023-04-25T09:53:02;98157.28;;;8.86;100.00
7433;BME280;32233;49.500;7.764;2023-04-25T09:55:35;98160.53;;;8.88;100.00
7433;BME280;32233;49.500;7.764;2023-04-25T09:58:07;98169.19;;;8.76;99.56
7433;BME280;32233;49.500;7.764;2023-04-25T10:00:37;98166.47;;;8.56;99.56
7433;BME280;32233;49.500;7.764;2023-04-25T10:03:19;98167.53;;;8.33;100.00
7433;BME280;32233;49.500;7.764;2023-04-25T10:06:12;98173.78;;;7.98;98.94
7433;BME280;32233;49.500;7.764;2023-04-25T10:08:39;98165.81;;;8.19;100.00
7433;BME280;32233;49.500;7.764;2023-04-25T10:11:08;98166.78;;;8.81;100.00
7433;BME280;32233;49.500;7.764;2023-04-25T10:13:35;98169.00;;;9.45;97.62
7433;BME280;32233;49.500;7.764;2023-04-25T10:16:04;98166.72;;;9.29;94.47
7433;BME280;32233;49.500;7.764;2023-04-25T10:18:32;98178.75;;;9.45;96.72
7433;BME280;32233;49.500;7.764;2023-04-25T10:21:03;98178.53;;;9.39;91.71
7433;BME280;32233;49.500;7.764;2023-04-25T10:23:31;98187.84;;;9.29;90.06
7433;BME280;32233;49.500;7.764;2023-04-25T10:25:58;98178.56;;;9.59;87.92
7433;BME280;32233;49.500;7.764;2023-04-25T10:28:26;98175.94;;;10.26;87.38
7433;BME280;32233;49.500;7.764;2023-04-25T10:31:03;98170.97;;;11.14;82.44
7433;BME280;32233;49.500;7.764;2023-04-25T10:33:37;98165.13;;;11.44;78.88
7433;BME280;32233;49.500;7.764;2023-04-25T10:36:15;98166.78;;;12.93;72.32
7433;BME280;32233;49.500;7.764;2023-04-25T10:38:44;98168.06;;;12.54;71.43
7433;BME280;32233;49.500;7.764;2023-04-25T10:41:12;98162.38;;;12.32;71.85
7433;BME280;32233;49.500;7.764;2023-04-25T10:43:43;98159.91;;;11.87;71.16
7433;BME280;32233;49.500;7.764;2023-04-25T10:46:27;98159.06;;;11.93;73.35
7433;BME280;32233;49.500;7.764;2023-04-25T10:48:59;98159.00;;;12.43;71.07
7433;BME280;32233;49.500;7.764;2023-04-25T10:51:33;98160.66;;;13.11;70.13
7433;BME280;32233;49.500;7.764;2023-04-25T10:54:19;98169.47;;;12.75;71.79
7433;BME280;32233;49.500;7.764;2023-04-25T10:56:48;98169.31;;;11.83;70.24
7433;BME280;32233;49.500;7.764;2023-04-25T10:59:17;98170.16;;;11.13;73.77
7433;BME280;32233;49.500;7.764;2023-04-25T11:01:51;98176.84;;;10.64;75.54
7433;BME280;32233;49.500;7.764;2023-04-25T11:04:27;98186.25;;;10.40;77.42
7433;BME280;32233;49.500;7.764;2023-04-25T11:07:02;98186.31;;;10.01;79.88
7433;BME280;32233;49.500;7.764;2023-04-25T11:09:39;98183.03;;;9.79;80.26
7433;BME280;32233;49.500;7.764;2023-04-25T11:12:09;98186.88;;;10.16;79.82
7433;BME280;32233;49.500;7.764;2023-04-25T11:14:38;98185.66;;;10.45;79.19
7433;BME280;32233;49.500;7.764;2023-04-25T11:17:06;98195.56;;;10.70;75.50
7433;BME280;32233;49.500;7.764;2023-04-25T11:19:32;98197.31;;;10.96;76.20
7433;BME280;32233;49.500;7.764;2023-04-25T11:22:00;98195.53;;;11.28;71.12
7433;BME280;32233;49.500;7.764;2023-04-25T11:24:28;98187.69;;;11.08;74.51
7433;BME280;32233;49.500;7.764;2023-04-25T11:26:55;98191.69;;;10.72;75.08
7433;BME280;32233;49.500;7.764;2023-04-25T11:29:23;98199.66;;;10.59;76.46
7433;BME280;32233;49.500;7.764;2023-04-25T11:31:50;98196.97;;;10.72;75.19
7433;BME280;32233;49.500;7.764;2023-04-25T11:34:20;98204.50;;;10.75;72.82
7433;BME280;32233;49.500;7.764;2023-04-25T11:36:46;98207.63;;;10.32;77.12
7433;BME280;32233;49.500;7.764;2023-04-25T11:39:13;98199.25;;;10.62;73.19
7433;BME280;32233;49.500;7.764;2023-04-25T11:41:41;98199.72;;;11.04;73.09
7433;BME280;32233;49.500;7.764;2023-04-25T11:44:10;98200.44;;;11.24;72.62
7433;BME280;32233;49.500;7.764;2023-04-25T11:46:36;98204.38;;;11.02;71.69
7433;BME280;32233;49.500;7.764;2023-04-25T11:49:03;98206.13;;;11.28;70.91
7433;BME280;32233;49.500;7.764;2023-04-25T11:51:40;98192.00;;;11.40;69.17
7433;BME280;32233;49.500;7.764;2023-04-25T11:54:07;98186.03;;;11.52;68.17
7433;BME280;32233;49.500;7.764;2023-04-25T11:56:36;98190.75;;;11.75;66.23
7433;BME280;32233;49.500;7.764;2023-04-25T11:59:04;98189.22;;;11.22;64.15
7433;BME280;32233;49.500;7.764;2023-04-25T12:01:38;98180.09;;;11.18;66.63
7433;BME280;32233;49.500;7.764;2023-04-25T12:04:22;98185.44;;;11.11;66.60
7433;BME280;32233;49.500;7.764;2023-04-25T12:06:53;98190.00;;;11.36;64.59
7433;BME280;32233;49.500;7.764;2023-04-25T12:09:30;98179.28;;;14.18;56.89
7433;BME280;32233;49.500;7.764;2023-04-25T12:11:59;98171.69;;;16.94;49.63
7433;BME280;32233;49.500;7.764;2023-04-25T12:14:33;98173.44;;;18.24;45.52
7433;BME280;32233;49.500;7.764;2023-04-25T12:17:02;98183.75;;;15.28;50.08
7433;BME280;32233;49.500;7.764;2023-04-25T12:19:34;98193.31;;;13.11;55.90
7433;BME280;32233;49.500;7.764;2023-04-25T12:22:02;98188.59;;;11.97;60.92
7433;BME280;32233;49.500;7.764;2023-04-25T12:24:33;98194.75;;;11.21;63.11
7433;BME280;32233;49.500;7.764;2023-04-25T12:27:06;98204.28;;;10.77;64.23
7433;BME280;32233;49.500;7.764;2023-04-25T12:29:34;98207.22;;;10.35;65.11
7433;BME280;32233;49.500;7.764;2023-04-25T12:32:15;98206.59;;;10.20;69.03
7433;BME280;32233;49.500;7.764;2023-04-25T12:34:42;98202.94;;;9.95;67.21
7433;BME280;32233;49.500;7.764;2023-04-25T12:37:09;98211.28;;;9.85;69.75
7433;BME280;32233;49.500;7.764;2023-04-25T12:39:35;98206.19;;;9.83;68.65
7433;BME280;32233;49.500;7.764;2023-04-25T12:42:02;98213.06;;;9.58;68.67
7433;BME280;32233;49.500;7.764;2023-04-25T12:44:31;98211.25;;;9.78;72.78
7433;BME280;32233;49.500;7.764;2023-04-25T12:46:58;98210.44;;;10.11;70.75
7433;BME280;32233;49.500;7.764;2023-04-25T12:49:26;98214.31;;;10.61;66.10
7433;BME280;32233;49.500;7.764;2023-04-25T12:51:53;98209.38;;;10.72;67.60
7433;BME280;32233;49.500;7.764;2023-04-25T12:54:22;98217.50;;;10.77;66.16
7433;BME280;32233;49.500;7.764;2023-04-25T12:56:51;98216.31;;;10.53;67.61
7433;BME280;32233;49.500;7.764;2023-04-25T12:59:17;98211.47;;;10.36;68.81
7433;BME280;32233;49.500;7.764;2023-04-25T13:01:44;98213.72;;;10.46;67.23
7433;BME280;32233;49.500;7.764;2023-04-25T13:04:11;98207.97;;;10.62;65.19
7433;BME280;32233;49.500;7.764;2023-04-25T13:06:38;98210.31;;;10.97;64.11
7433;BME280;32233;49.500;7.764;2023-04-25T13:09:05;98213.72;;;11.49;61.98
7433;BME280;32233;49.500;7.764;2023-04-25T13:11:33;98209.66;;;11.85;60.29
7433;BME280;32233;49.500;7.764;2023-04-25T13:14:00;98216.72;;;11.91;60.95
7433;BME280;32233;49.500;7.764;2023-04-25T13:16:26;98219.81;;;11.11;63.00
7433;BME280;32233;49.500;7.764;2023-04-25T13:18:53;98215.81;;;10.89;63.01
7433;BME280;32233;49.500;7.764;2023-04-25T13:21:20;98227.75;;;10.33;61.58
7433;BME280;32233;49.500;7.764;2023-04-25T13:23:46;98225.47;;;10.04;65.91
7433;BME280;32233;49.500;7.764;2023-04-25T13:26:13;98225.25;;;9.79;66.89
7433;BME280;32233;49.500;7.764;2023-04-25T13:28:39;98226.44;;;9.50;66.79